Rock Falls, Iowa
Current Conditions -  °F | °C
As of 12:53 AM on Friday 19 Dec 2014 (Local Time) from KMCW Reporting Station
Overcast Overcast  
Wind Chill: 17°   Ceiling: 7000
Heat Index: 23°   Visibility: 8mi
Dew Point: 19°   Wind: 5mph
Humidity: 85%   Direction: 170°S
Pressure: 30.26"   Gusts: NA
Location:  43.21°N, 93.08°W
Report Text: KMCW 190653Z AUTO 17004KT 8SM OVC070 M05/M07 A3026 RMK AO2 SLP263 T10501072
Loading
Personal Weather Stations






























Interactive Weather Map New forecast layout! Learn more

10-Day Weather Forecast

Advertisements
Track Severe Weather on mobile